Time;durP1;ratioP1;P1;durP2;ratioP2;P2;SDS_P1;SDS_P2;PMS_P1;PMS_P2;Temp;Humidity;BMP_temperature;BMP_pressure;BME280_temperature;BME280_humidity;BME280_pressure;Samples;Min_cycle;Max_cycle;Signal;HPM_P1;HPM_P2
2023/11/12 08:55:35;;;;;;;10.17;7.87;;;;;;;5.36;100.00;98122.25;5106932;28;21342;-84
2023/11/12 08:58:03;;;;;;;10.83;8.10;;;;;;;5.85;100.00;98116.97;5088991;28;39199;-83
2023/11/12 09:00:32;;;;;;;9.23;7.53;;;;;;;6.26;100.00;98114.69;5107241;28;42239;-83
2023/11/12 09:02:59;;;;;;;10.70;8.10;;;;;;;6.53;100.00;98112.25;5089991;28;45125;-83
2023/11/12 09:05:26;;;;;;;8.10;6.57;;;;;;;6.84;100.00;98124.44;5108262;28;42314;-84
2023/11/12 09:07:54;;;;;;;8.27;6.03;;;;;;;7.11;100.00;98125.44;5089918;28;39177;-82
2023/11/12 09:10:21;;;;;;;7.23;6.00;;;;;;;7.32;100.00;98096.94;5089679;28;41227;-84
2023/11/12 09:12:50;;;;;;;6.77;6.03;;;;;;;7.76;100.00;98106.53;5090916;28;42893;-83
2023/11/12 09:15:18;;;;;;;8.03;6.00;;;;;;;8.14;100.00;98123.38;5092318;28;42102;-83
2023/11/12 09:17:46;;;;;;;7.60;6.00;;;;;;;8.29;100.00;98106.53;5120191;28;40529;-83
2023/11/12 09:20:15;;;;;;;6.00;5.00;;;;;;;8.69;100.00;98124.22;5109994;28;42016;-83
2023/11/12 09:22:42;;;;;;;5.67;4.93;;;;;;;8.85;100.00;98127.53;5108756;28;41642;-83
2023/11/12 09:25:11;;;;;;;6.40;5.10;;;;;;;9.06;100.00;98125.22;5108520;28;41354;-85
2023/11/12 09:27:38;;;;;;;6.73;5.40;;;;;;;9.18;100.00;98132.31;5109386;28;41045;-83
2023/11/12 09:30:09;;;;;;;10.43;5.00;;;;;;;9.26;100.00;98132.66;5092309;28;40694;-82
2023/11/12 09:32:36;;;;;;;5.23;4.73;;;;;;;9.32;99.98;98130.44;5105588;28;42780;-84
2023/11/12 09:35:06;;;;;;;4.57;4.17;;;;;;;9.36;99.16;98116.06;5090447;28;41307;-85
2023/11/12 09:37:33;;;;;;;4.77;3.87;;;;;;;9.53;97.49;98122.81;5108432;28;40040;-83
2023/11/12 09:40:01;;;;;;;7.37;6.60;;;;;;;9.57;95.28;98137.50;5107392;28;42675;-84
2023/11/12 09:42:29;;;;;;;7.60;6.03;;;;;;;9.72;94.57;98148.81;5106240;28;43607;-85
2023/11/12 09:44:59;;;;;;;6.43;5.60;;;;;;;9.88;93.70;98138.00;5107261;28;42341;-86
2023/11/12 09:47:38;;;;;;;8.20;6.30;;;;;;;10.12;91.53;98130.94;5106996;28;40977;-86
2023/11/12 09:50:10;;;;;;;6.87;6.13;;;;;;;10.35;90.55;98127.50;5089250;28;42085;-85
2023/11/12 09:52:38;;;;;;;6.67;5.87;;;;;;;10.77;88.71;98143.81;5103686;28;43731;-84
2023/11/12 09:55:08;;;;;;;6.30;5.70;;;;;;;11.01;86.46;98122.56;5105980;28;43046;-83
2023/11/12 09:57:36;;;;;;;6.93;5.43;;;;;;;11.42;84.76;98148.56;5089121;28;39045;-86
2023/11/12 10:00:06;;;;;;;8.87;5.80;;;;;;;11.67;81.50;98135.09;5106030;28;43361;-85
2023/11/12 10:02:38;;;;;;;8.80;5.63;;;;;;;12.48;78.39;98139.25;5106121;28;42224;-85
2023/11/12 10:05:10;;;;;;;5.53;5.03;;;;;;;12.94;75.25;98149.59;5102767;28;42661;-86
2023/11/12 10:07:37;;;;;;;6.80;5.23;;;;;;;13.08;73.72;98124.50;5074370;28;40204;-86
2023/11/12 10:10:21;;;;;;;8.07;5.00;;;;;;;13.15;71.65;98133.66;5074971;28;40876;-85
2023/11/12 10:12:49;;;;;;;5.57;4.97;;;;;;;13.81;70.82;98156.31;5076321;28;42830;-83
2023/11/12 10:15:23;;;;;;;6.17;4.43;;;;;;;14.45;69.15;98155.16;5076575;28;41215;-86
2023/11/12 10:17:52;;;;;;;4.77;4.37;;;;;;;14.66;67.45;98166.56;5075470;28;40545;-86
2023/11/12 10:20:21;;;;;;;4.70;4.20;;;;;;;14.58;67.57;98156.59;5076903;28;40897;-86
2023/11/12 10:22:49;;;;;;;4.33;3.93;;;;;;;14.47;66.62;98175.34;5076224;28;44812;-84
2023/11/12 10:25:36;;;;;;;4.30;3.90;;;;;;;15.19;65.92;98174.16;5076499;28;42165;-88
2023/11/12 10:28:06;;;;;;;5.60;4.23;;;;;;;15.98;62.89;98164.88;5076789;28;40151;-87
2023/11/12 10:30:34;;;;;;;4.53;4.13;;;;;;;17.37;57.66;98181.44;5094030;28;41911;-85
2023/11/12 10:33:18;;;;;;;4.67;3.90;;;;;;;19.04;54.19;98197.09;5076473;28;41730;-87
2023/11/12 10:35:46;;;;;;;7.77;4.30;;;;;;;19.32;51.52;98182.31;5076970;28;41670;-85
2023/11/12 10:38:17;;;;;;;4.03;3.70;;;;;;;20.33;47.57;98244.56;5076722;28;40629;-86
2023/11/12 10:41:04;;;;;;;4.07;3.73;;;;;;;20.82;45.73;98239.84;5075785;28;41781;-86
2023/11/12 10:44:18;;;;;;;4.63;4.23;;;;;;;21.28;45.97;98200.41;5074519;28;43301;-85
2023/11/12 10:46:52;;;;;;;5.03;4.17;;;;;;;21.77;45.96;98222.41;5074006;28;41203;-85
2023/11/12 10:49:23;;;;;;;4.07;3.67;;;;;;;22.32;44.55;98226.63;5057113;28;39430;-86
2023/11/12 10:52:03;;;;;;;4.70;4.20;;;;;;;22.95;43.37;98241.41;5040789;28;41726;-85
2023/11/12 10:54:59;;;;;;;4.37;3.93;;;;;;;22.44;41.75;98187.34;5106619;27;44199;-88
2023/11/12 10:57:27;;;;;;;4.07;3.67;;;;;;;21.86;42.19;98237.50;5111955;27;41636;-86
2023/11/12 10:59:56;;;;;;;4.30;3.90;;;;;;;21.04;41.60;98233.69;5095594;28;40066;-85
2023/11/12 11:02:29;;;;;;;3.80;3.50;;;;;;;20.28;44.06;98210.09;5094784;27;42395;-87
2023/11/12 11:05:00;;;;;;;5.67;3.50;;;;;;;20.13;44.63;98211.84;5092072;27;43526;-85
2023/11/12 11:07:43;;;;;;;5.70;3.30;;;;;;;20.22;43.96;98191.97;5116082;27;41137;-86
2023/11/12 11:10:27;;;;;;;3.60;3.30;;;;;;;20.61;44.75;98201.97;5097203;27;39429;-85
2023/11/12 11:12:55;;;;;;;3.50;3.07;;;;;;;20.77;44.44;98193.81;5115094;27;41028;-84
2023/11/12 11:16:04;;;;;;;3.37;3.00;;;;;;;20.56;42.54;98228.53;5096089;28;42849;-84
2023/11/12 11:19:09;;;;;;;3.53;3.23;;;;;;;19.86;43.58;98206.84;5078034;28;41535;-86
2023/11/12 11:21:38;;;;;;;4.07;3.03;;;;;;;19.44;44.65;98213.22;5096564;28;39185;-87
2023/11/12 11:30:06;;;;;;;3.47;2.93;;;;;;;19.92;44.08;98179.28;5115993;27;42301;-85
2023/11/12 11:32:34;;;;;;;3.73;3.20;;;;;;;20.46;44.25;98184.88;5115405;27;40725;-87
2023/11/12 11:35:12;;;;;;;4.77;2.73;;;;;;;21.16;41.65;98228.72;5115332;27;40875;-85
2023/11/12 11:38:12;;;;;;;3.17;2.57;;;;;;;20.92;42.01;98227.00;5132679;27;41527;-84
2023/11/12 11:40:57;;;;;;;2.77;2.30;;;;;;;20.64;42.40;98217.75;5114893;27;41737;-86
2023/11/12 11:43:44;;;;;;;2.73;2.53;;;;;;;20.13;42.25;98176.91;5108688;28;39265;-86
2023/11/12 11:46:13;;;;;;;3.07;2.50;;;;;;;20.18;42.99;98196.03;5078119;28;40507;-84
2023/11/12 11:49:18;;;;;;;2.90;2.40;;;;;;;20.28;43.31;98191.28;5094419;28;44108;-84
2023/11/12 11:51:48;;;;;;;6.40;2.30;;;;;;;20.40;41.95;98187.22;5076827;28;41354;-87
2023/11/12 11:54:17;;;;;;;2.63;2.43;;;;;;;20.49;41.47;98188.06;5094447;28;40878;-86
2023/11/12 11:57:05;;;;;;;3.33;2.43;;;;;;;20.70;40.92;98198.22;5094383;28;42147;-86
2023/11/12 11:59:36;;;;;;;2.90;2.00;;;;;;;20.95;41.25;98198.91;5094361;28;43089;-85
2023/11/12 12:02:05;;;;;;;3.93;2.13;;;;;;;21.01;41.73;98166.75;5093344;27;42423;-84
2023/11/12 12:04:34;;;;;;;3.53;2.10;;;;;;;20.91;41.56;98197.59;5114053;27;38352;-87
2023/11/12 12:07:02;;;;;;;3.17;2.20;;;;;;;20.60;41.55;98189.53;5114457;27;41069;-86
2023/11/12 12:12:47;;;;;;;3.07;2.10;;;;;;;21.43;40.59;98184.28;5114394;27;41852;-87
2023/11/12 12:15:35;;;;;;;3.40;2.00;;;;;;;22.66;39.30;98190.09;5115278;27;39307;-85
2023/11/12 12:21:03;;;;;;;2.00;1.80;;;;;;;23.66;35.97;98209.94;5135171;27;41764;-86
2023/11/12 12:23:31;;;;;;;1.50;1.40;;;;;;;24.17;34.93;98196.19;5121421;27;41211;-84
2023/11/12 12:26:15;;;;;;;3.37;1.87;;;;;;;25.40;35.21;98210.53;5115841;27;40083;-86
2023/11/12 12:29:23;;;;;;;1.80;1.67;;;;;;;25.65;33.60;98161.16;5115303;27;40632;-84
2023/11/12 12:37:58;;;;;;;1.70;1.60;;;;;;;23.16;34.53;98165.78;5111667;27;42119;-86
2023/11/12 12:40:51;;;;;;;2.87;1.30;;;;;;;22.65;36.39;98193.81;5115004;27;40988;-88
2023/11/12 12:43:20;;;;;;;1.90;1.70;;;;;;;22.25;37.27;98187.94;5112908;27;42784;-87
2023/11/12 12:45:56;;;;;;;2.20;1.47;;;;;;;21.66;38.73;98168.09;5114070;27;42458;-85
2023/11/12 12:48:50;;;;;;;2.27;1.60;;;;;;;21.15;38.63;98168.66;5114427;27;39324;-86
2023/11/12 12:51:18;;;;;;;2.33;1.40;;;;;;;20.38;40.33;98122.03;5113773;27;40945;-88
2023/11/12 12:53:46;;;;;;;3.00;1.17;;;;;;;20.16;40.87;98155.03;5114493;27;44170;-86
2023/11/12 12:56:22;;;;;;;2.20;1.43;;;;;;;19.63;41.56;98132.34;5114494;27;42274;-88
2023/11/12 12:59:05;;;;;;;1.57;1.40;;;;;;;19.23;41.69;98135.84;5130768;27;40891;-87
2023/11/12 13:01:33;;;;;;;1.43;1.23;;;;;;;18.88;42.38;98137.00;5113968;27;40980;-86
2023/11/12 13:07:10;;;;;;;1.27;1.17;;;;;;;18.09;43.04;98140.09;5113783;27;41364;-85
2023/11/12 13:09:38;;;;;;;1.30;1.20;;;;;;;17.63;43.71;98127.09;5124516;27;38986;-86
2023/11/12 13:12:07;;;;;;;3.63;1.30;;;;;;;17.37;44.59;98117.22;5110930;28;42707;-84
2023/11/12 13:14:37;;;;;;;1.37;1.10;;;;;;;17.16;44.86;98136.28;5094636;28;42079;-86
2023/11/12 13:17:05;;;;;;;1.57;1.20;;;;;;;16.79;45.65;98107.06;5094732;28;42654;-85
2023/11/12 13:19:33;;;;;;;2.30;1.13;;;;;;;16.65;45.87;98115.59;5094712;28;39077;-84
2023/11/12 13:22:00;;;;;;;2.23;1.20;;;;;;;16.51;46.32;98122.28;5094326;28;40775;-85
2023/11/12 13:24:29;;;;;;;5.57;1.20;;;;;;;16.38;46.20;98123.63;5093853;28;43634;-85
2023/11/12 13:26:57;;;;;;;2.13;1.30;;;;;;;16.27;46.82;98123.84;5094156;28;45125;-86
2023/11/12 13:29:25;;;;;;;1.60;1.07;;;;;;;16.31;46.74;98143.94;5111144;28;40631;-83
2023/11/12 13:31:56;;;;;;;2.13;1.60;;;;;;;16.02;47.00;98106.69;5094170;28;42667;-87
2023/11/12 13:34:24;;;;;;;2.87;1.30;;;;;;;16.04;47.22;98116.22;5093982;28;42859;-85
2023/11/12 13:36:52;;;;;;;2.10;1.20;;;;;;;16.07;48.02;98136.47;5093733;28;40986;-85
2023/11/12 13:39:19;;;;;;;1.33;1.23;;;;;;;15.81;47.75;98114.94;5111013;28;40254;-87
2023/11/12 13:41:49;;;;;;;1.93;1.20;;;;;;;15.72;47.84;98129.13;5097380;28;40552;-85
2023/11/12 13:44:25;;;;;;;1.30;1.20;;;;;;;15.43;48.41;98095.34;5096109;28;41941;-88
2023/11/12 13:46:54;;;;;;;1.13;1.07;;;;;;;15.61;47.96;98145.31;5096628;28;42237;-83
2023/11/12 13:49:23;;;;;;;2.93;1.33;;;;;;;15.64;47.95;98142.38;5113634;28;40326;-86
2023/11/12 13:51:55;;;;;;;1.57;1.30;;;;;;;15.46;48.19;98127.06;5147819;27;42592;-84
2023/11/12 13:54:23;;;;;;;2.43;1.60;;;;;;;15.09;48.04;98081.66;5096126;28;43851;-85
2023/11/12 13:56:51;;;;;;;1.47;1.30;;;;;;;15.25;48.62;98121.06;5096271;28;44067;-87
2023/11/12 13:59:20;;;;;;;1.93;1.20;;;;;;;15.01;49.01;98107.34;5096037;28;40456;-86
2023/11/12 14:01:50;;;;;;;1.70;1.50;;;;;;;14.83;49.79;98087.75;5096454;28;42360;-85
2023/11/12 14:04:19;;;;;;;2.03;1.60;;;;;;;14.93;50.00;98121.41;5113210;28;43672;-85
2023/11/12 14:06:48;;;;;;;1.93;1.43;;;;;;;14.78;50.76;98116.63;5096103;28;43367;-88
2023/11/12 14:09:17;;;;;;;2.27;1.70;;;;;;;14.64;50.74;98113.41;5095365;28;39048;-86
2023/11/12 14:11:46;;;;;;;4.10;1.63;;;;;;;14.44;50.92;98097.53;5097260;28;40816;-83
2023/11/12 14:14:14;;;;;;;1.70;1.37;;;;;;;14.34;51.33;98116.16;5114113;28;42818;-86
2023/11/12 14:16:42;;;;;;;1.83;1.50;;;;;;;14.20;51.63;98103.22;5114295;28;42616;-84
2023/11/12 14:19:12;;;;;;;1.23;1.13;;;;;;;14.00;51.55;98091.66;5097071;28;39046;-85
2023/11/12 14:21:42;;;;;;;1.50;1.40;;;;;;;13.90;52.15;98090.78;5131422;27;40471;-87
2023/11/12 14:24:11;;;;;;;1.43;1.10;;;;;;;13.72;52.11;98087.09;5130754;27;41730;-87
2023/11/12 14:26:39;;;;;;;1.20;1.10;;;;;;;13.67;52.26;98090.16;5096985;28;41384;-84
2023/11/12 14:29:07;;;;;;;1.20;1.10;;;;;;;13.53;53.21;98087.84;5115068;28;41014;-85
2023/11/12 14:31:35;;;;;;;1.37;1.27;;;;;;;13.44;53.30;98088.66;5097033;28;42249;-84
2023/11/12 14:34:03;;;;;;;1.03;1.00;;;;;;;13.21;53.15;98067.53;5096598;28;43187;-87
2023/11/12 14:36:31;;;;;;;1.93;1.13;;;;;;;13.21;53.14;98083.50;5096850;28;42955;-85
2023/11/12 14:39:00;;;;;;;1.20;1.10;;;;;;;13.04;54.01;98065.44;5080321;28;39033;-83
2023/11/12 14:41:29;;;;;;;1.10;1.00;;;;;;;12.97;54.32;98069.59;5095188;28;41118;-84
2023/11/12 14:43:56;;;;;;;3.23;1.57;;;;;;;12.90;54.40;98068.41;5112568;28;42110;-83
2023/11/12 14:46:24;;;;;;;0.87;0.87;;;;;;;12.92;54.89;98080.59;5095673;28;40924;-86
2023/11/12 14:48:51;;;;;;;1.57;0.93;;;;;;;12.85;54.77;98086.59;5095665;28;38952;-85
2023/11/12 14:51:19;;;;;;;1.83;1.30;;;;;;;12.70;54.89;98074.56;5111985;28;42913;-84
2023/11/12 14:53:47;;;;;;;1.63;1.10;;;;;;;12.58;54.96;98079.94;5112509;28;43091;-87
2023/11/12 14:56:16;;;;;;;1.20;1.00;;;;;;;12.48;55.35;98084.34;5112260;28;42622;-86
2023/11/12 14:58:43;;;;;;;1.10;1.00;;;;;;;12.35;55.75;98080.16;5112596;28;39857;-87
2023/11/12 15:01:12;;;;;;;1.30;1.20;;;;;;;12.20;55.98;98076.94;5095518;28;41978;-88
2023/11/12 15:03:40;;;;;;;2.13;1.40;;;;;;;12.10;56.29;98078.66;5112173;28;41815;-87
2023/11/12 15:06:07;;;;;;;2.93;1.23;;;;;;;12.05;56.63;98081.66;5113629;28;42683;-87
2023/11/12 15:08:36;;;;;;;1.60;1.40;;;;;;;11.95;57.14;98085.19;5147019;27;40058;-87
2023/11/12 15:11:04;;;;;;;1.70;1.50;;;;;;;11.69;57.34;98058.06;5111905;28;41259;-84
2023/11/12 15:13:33;;;;;;;1.60;1.10;;;;;;;11.51;57.66;98047.94;5113734;28;43022;-84
2023/11/12 15:16:00;;;;;;;2.67;1.33;;;;;;;11.51;57.69;98065.66;5113337;28;43134;-85
2023/11/12 15:18:28;;;;;;;2.33;1.57;;;;;;;11.39;58.16;98079.88;5096080;28;40073;-87
2023/11/12 15:20:55;;;;;;;3.13;1.90;;;;;;;11.13;58.02;98056.25;5113044;28;42109;-84
2023/11/12 15:23:23;;;;;;;2.50;1.57;;;;;;;11.16;58.25;98082.50;5129017;28;42134;-88
2023/11/12 15:25:50;;;;;;;2.57;1.53;;;;;;;11.10;58.45;98093.59;5114829;28;43103;-87
2023/11/12 15:28:18;;;;;;;1.87;1.60;;;;;;;11.04;58.70;98094.06;5113813;28;39289;-83
2023/11/12 15:30:48;;;;;;;3.20;1.70;;;;;;;10.89;58.91;98083.78;5113097;28;42342;-87
2023/11/12 15:33:16;;;;;;;2.20;1.57;;;;;;;10.83;59.06;98087.75;5096078;28;44485;-87
2023/11/12 15:35:43;;;;;;;1.60;1.50;;;;;;;10.73;59.34;98092.06;5095802;28;41244;-85
2023/11/12 15:38:10;;;;;;;1.70;1.50;;;;;;;10.47;59.95;98061.38;5095970;28;39931;-85
2023/11/12 15:40:38;;;;;;;2.63;2.17;;;;;;;10.41;60.12;98079.41;5111730;28;40463;-85
2023/11/12 15:43:07;;;;;;;2.90;2.20;;;;;;;10.27;60.41;98071.63;5111919;28;42130;-83
2023/11/12 15:45:35;;;;;;;3.07;2.20;;;;;;;10.23;60.12;98078.13;5111752;28;43840;-84
2023/11/12 15:48:05;;;;;;;2.13;1.93;;;;;;;10.12;60.36;98072.75;5112471;28;39909;-86
2023/11/12 15:50:33;;;;;;;2.77;2.27;;;;;;;10.12;60.43;98099.22;5094726;28;40380;-85
2023/11/12 15:53:02;;;;;;;4.43;3.30;;;;;;;9.94;60.58;98082.00;5094716;28;41982;-84
2023/11/12 15:55:30;;;;;;;9.10;5.43;;;;;;;9.96;60.89;98095.97;5112681;28;42938;-85
2023/11/12 15:57:59;;;;;;;19.53;11.30;;;;;;;9.90;61.05;98099.03;5094809;28;39478;-86
2023/11/12 16:00:27;;;;;;;22.37;14.23;;;;;;;9.55;61.05;98052.19;5111655;28;41860;-87
2023/11/12 16:02:54;;;;;;;33.17;20.13;;;;;;;9.75;61.30;98101.00;5111375;28;42920;-86
2023/11/12 16:05:24;;;;;;;27.27;16.90;;;;;;;9.59;61.23;98087.19;5111810;28;42499;-86
2023/11/12 16:07:51;;;;;;;27.93;18.53;;;;;;;9.53;61.23;98080.50;5113089;28;40342;-88
2023/11/12 16:10:19;;;;;;;26.70;17.53;;;;;;;9.50;61.42;98091.31;5111222;28;42453;-87
2023/11/12 16:12:46;;;;;;;24.07;16.23;;;;;;;9.54;61.50;98100.72;5095441;28;43266;-85
2023/11/12 16:15:15;;;;;;;19.87;13.17;;;;;;;9.50;62.18;98101.91;5112679;28;40558;-83
2023/11/12 16:17:44;;;;;;;18.00;11.90;;;;;;;9.39;62.09;98087.75;5115708;28;40934;-82
2023/11/12 16:20:12;;;;;;;11.73;8.63;;;;;;;9.22;61.85;98070.41;5105370;28;41016;-83
2023/11/12 16:22:44;;;;;;;13.40;9.23;;;;;;;9.49;62.16;98116.06;5123184;28;41864;-82
2023/11/12 16:25:12;;;;;;;13.37;8.63;;;;;;;9.55;62.28;98120.91;5139103;27;41440;-83
2023/11/12 16:27:40;;;;;;;11.13;7.57;;;;;;;9.56;62.60;98122.59;5123858;28;41106;-83
2023/11/12 16:30:08;;;;;;;9.67;7.07;;;;;;;9.56;62.89;98117.31;5098812;28;41962;-87
2023/11/12 16:32:36;;;;;;;9.70;7.20;;;;;;;9.59;62.82;98126.81;5095887;28;41875;-84
2023/11/12 16:35:04;;;;;;;19.97;11.23;;;;;;;9.59;62.84;98119.75;5113568;28;43223;-87
2023/11/12 16:37:32;;;;;;;25.07;14.00;;;;;;;9.52;62.95;98107.88;5111473;28;40984;-87
2023/11/12 16:40:03;;;;;;;30.50;16.70;;;;;;;9.51;63.17;98108.88;5110762;28;41599;-86
2023/11/12 16:42:30;;;;;;;39.37;22.40;;;;;;;9.63;63.02;98130.97;5112591;28;42374;-87
2023/11/12 16:44:58;;;;;;;39.03;20.57;;;;;;;9.58;63.15;98120.69;5111090;28;43558;-83
2023/11/12 16:47:25;;;;;;;35.13;19.07;;;;;;;9.60;63.13;98117.94;5094042;28;40391;-84
2023/11/12 16:49:53;;;;;;;28.67;16.83;;;;;;;9.61;63.27;98117.84;5111338;28;41296;-86
2023/11/12 16:52:21;;;;;;;24.67;14.73;;;;;;;9.60;63.35;98121.44;5111531;28;42837;-84
2023/11/12 16:54:49;;;;;;;18.97;11.53;;;;;;;9.68;63.10;98132.31;5111153;28;43107;-87
2023/11/12 16:57:18;;;;;;;17.47;10.50;;;;;;;9.62;63.00;98124.81;5111314;28;40036;-84
2023/11/12 16:59:45;;;;;;;14.40;8.57;;;;;;;9.68;63.42;98145.53;5094194;28;41371;-83
2023/11/12 17:02:13;;;;;;;13.17;7.93;;;;;;;9.69;63.21;98138.44;5111101;28;43058;-83
2023/11/12 17:04:41;;;;;;;11.73;7.10;;;;;;;9.45;63.36;98101.34;5094063;28;42146;-81
2023/11/12 17:07:10;;;;;;;10.90;6.50;;;;;;;9.69;63.67;98143.72;5112341;28;40010;-84
2023/11/12 17:09:38;;;;;;;7.70;5.63;;;;;;;9.68;63.46;98147.31;5110512;28;43452;-83
2023/11/12 17:12:06;;;;;;;8.63;6.27;;;;;;;9.65;63.82;98147.53;5094307;28;44002;-83
2023/11/12 17:14:36;;;;;;;6.90;5.33;;;;;;;9.65;64.41;98158.94;5111961;27;43213;-83
2023/11/12 17:17:04;;;;;;;8.57;5.63;;;;;;;9.64;64.69;98156.44;5116416;28;40117;-86
2023/11/12 17:19:32;;;;;;;9.33;5.60;;;;;;;9.50;64.76;98144.19;5116883;28;41521;-83
2023/11/12 17:22:00;;;;;;;6.97;4.90;;;;;;;9.53;65.15;98165.09;5098672;28;41602;-86
2023/11/12 17:24:28;;;;;;;10.33;5.77;;;;;;;9.47;64.97;98154.13;5115524;28;42254;-85
2023/11/12 17:26:55;;;;;;;7.83;5.37;;;;;;;9.53;65.15;98169.53;5098644;28;40274;-86
2023/11/12 17:29:24;;;;;;;6.90;4.97;;;;;;;9.50;65.45;98170.63;5098160;28;42330;-85
2023/11/12 17:31:53;;;;;;;9.17;5.27;;;;;;;9.35;65.58;98153.16;5115403;28;44209;-85
2023/11/12 17:34:21;;;;;;;8.13;5.90;;;;;;;9.31;66.18;98152.50;5116159;28;43242;-85
2023/11/12 17:36:48;;;;;;;7.33;5.37;;;;;;;9.35;65.82;98161.94;5115349;28;39101;-85
2023/11/12 17:39:16;;;;;;;6.43;5.07;;;;;;;9.28;66.46;98154.50;5098019;28;41293;-84
2023/11/12 17:41:46;;;;;;;6.43;4.90;;;;;;;9.20;66.38;98154.19;5096372;28;43102;-82
2023/11/12 17:44:14;;;;;;;6.93;4.50;;;;;;;9.19;66.52;98171.00;5096807;28;41159;-85
2023/11/12 17:46:44;;;;;;;7.43;5.60;;;;;;;9.07;66.77;98167.41;5131310;27;40131;-83
2023/11/12 17:49:13;;;;;;;7.67;4.43;;;;;;;8.71;67.82;98112.63;5131214;27;41987;-85
2023/11/12 17:51:41;;;;;;;7.43;5.77;;;;;;;8.96;70.42;98149.63;5113984;28;43782;-86
2023/11/12 17:54:08;;;;;;;8.97;6.57;;;;;;;8.94;71.44;98155.97;5096520;28;42186;-86
2023/11/12 17:56:37;;;;;;;8.47;5.73;;;;;;;8.89;71.79;98158.94;5097095;28;39060;-85
2023/11/12 17:59:04;;;;;;;6.50;4.57;;;;;;;8.66;71.83;98130.53;5113516;28;41816;-85
2023/11/12 18:01:32;;;;;;;6.37;4.53;;;;;;;8.66;72.10;98122.63;5113892;28;42690;-86
2023/11/12 18:04:00;;;;;;;5.63;4.73;;;;;;;8.81;72.81;98153.28;5113634;28;42132;-84
2023/11/12 18:06:32;;;;;;;7.30;5.17;;;;;;;8.74;72.44;98149.38;5115112;28;40938;-82
2023/11/12 18:09:00;;;;;;;6.77;4.70;;;;;;;8.86;72.63;98163.56;5096114;28;42240;-83
2023/11/12 18:11:30;;;;;;;9.30;5.87;;;;;;;8.85;73.09;98167.16;5096736;28;42003;-83
2023/11/12 18:13:59;;;;;;;8.70;5.53;;;;;;;8.73;73.21;98147.69;5097472;28;41395;-84
2023/11/12 18:16:27;;;;;;;8.47;6.50;;;;;;;8.84;73.14;98166.28;5097614;28;39140;-84
2023/11/12 18:18:55;;;;;;;9.07;6.63;;;;;;;8.87;73.58;98165.25;5097232;28;41936;-83
2023/11/12 18:21:22;;;;;;;7.10;6.03;;;;;;;8.84;72.91;98165.44;5102539;28;43107;-84
2023/11/12 18:23:51;;;;;;;7.97;6.23;;;;;;;8.79;73.17;98162.25;5116498;28;41116;-83
2023/11/12 18:26:19;;;;;;;8.37;5.73;;;;;;;8.52;73.04;98122.72;5151685;27;40379;-83
2023/11/12 18:28:47;;;;;;;7.77;6.13;;;;;;;8.78;72.52;98185.16;5115077;28;41568;-86
2023/11/12 18:31:18;;;;;;;6.57;5.33;;;;;;;8.68;72.62;98178.81;5113721;28;43668;-85
2023/11/12 18:33:46;;;;;;;7.03;4.53;;;;;;;8.65;72.24;98186.94;5113069;28;43966;-85
2023/11/12 18:36:13;;;;;;;5.00;4.47;;;;;;;8.60;72.60;98184.59;5113369;28;39662;-86
2023/11/12 18:38:41;;;;;;;7.30;4.60;;;;;;;8.59;73.25;98198.75;5096155;28;40712;-85
2023/11/12 18:41:10;;;;;;;7.67;5.10;;;;;;;8.57;73.03;98186.56;5095743;28;42503;-86
2023/11/12 18:43:37;;;;;;;9.53;4.60;;;;;;;8.39;73.11;98159.63;5096066;28;41132;-86
2023/11/12 18:46:05;;;;;;;8.10;4.97;;;;;;;8.49;73.38;98187.09;5114127;28;40079;-85
2023/11/12 18:48:33;;;;;;;5.37;4.23;;;;;;;8.35;73.44;98179.22;5113106;28;40709;-84
2023/11/12 18:51:00;;;;;;;5.73;4.40;;;;;;;8.33;73.16;98180.25;5112426;28;44613;-84
2023/11/12 18:53:28;;;;;;;6.87;4.30;;;;;;;8.41;73.22;98204.34;5095843;28;41062;-87
2023/11/12 18:55:55;;;;;;;4.73;3.73;;;;;;;8.36;72.68;98201.16;5096028;28;38932;-87
2023/11/12 18:58:24;;;;;;;6.13;3.67;;;;;;;8.28;72.85;98184.00;5095711;28;40937;-86
2023/11/12 19:00:53;;;;;;;5.57;3.83;;;;;;;8.27;72.74;98194.66;5112832;28;42533;-83
2023/11/12 19:03:20;;;;;;;5.37;3.87;;;;;;;8.36;72.87;98217.00;5129955;27;41592;-86
2023/11/12 19:05:48;;;;;;;5.30;4.23;;;;;;;8.37;72.93;98210.78;5112739;28;39074;-84
2023/11/12 19:08:17;;;;;;;5.60;4.00;;;;;;;8.21;73.10;98197.66;5114045;28;42409;-84
2023/11/12 19:10:45;;;;;;;7.27;4.63;;;;;;;8.16;73.04;98195.31;5111652;28;42430;-83
2023/11/12 19:13:12;;;;;;;9.63;5.53;;;;;;;8.07;73.25;98201.19;5113751;28;41596;-84
2023/11/12 19:15:58;;;;;;;8.17;4.90;;;;;;;8.10;73.90;98222.09;5130567;27;39285;-85
2023/11/12 19:18:30;;;;;;;5.13;4.03;;;;;;;8.01;73.81;98235.84;5113664;27;41714;-85
2023/11/12 19:20:59;;;;;;;5.80;3.97;;;;;;;7.83;74.09;98229.06;5096101;28;42642;-85
2023/11/12 19:23:28;;;;;;;6.03;4.00;;;;;;;7.89;74.13;98237.47;5096314;28;41176;-85
2023/11/12 19:25:56;;;;;;;8.53;6.23;;;;;;;7.83;75.15;98231.69;5094488;28;39641;-85
2023/11/12 19:28:23;;;;;;;7.77;5.60;;;;;;;7.66;75.07;98205.56;5111903;28;41617;-84
2023/11/12 19:31:05;;;;;;;10.67;6.80;;;;;;;7.62;75.58;98215.41;5112035;28;42974;-84
2023/11/12 19:33:32;;;;;;;7.87;5.60;;;;;;;7.62;75.48;98230.38;5109350;28;42933;-85
2023/11/12 19:36:00;;;;;;;7.97;5.50;;;;;;;7.69;75.06;98252.78;5095296;28;38876;-83
2023/11/12 19:38:29;;;;;;;8.53;5.50;;;;;;;7.57;75.28;98249.94;5094435;28;40844;-85
2023/11/12 19:40:58;;;;;;;6.30;4.60;;;;;;;7.63;75.36;98261.06;5095087;28;41775;-86
2023/11/12 19:43:25;;;;;;;6.10;4.27;;;;;;;7.69;75.41;98271.22;5095093;28;41003;-85
2023/11/12 19:45:53;;;;;;;4.80;3.93;;;;;;;7.71;75.42;98271.97;5112037;28;40665;-85
2023/11/12 19:48:22;;;;;;;7.37;4.13;;;;;;;7.73;75.75;98270.09;5111987;28;40811;-83
2023/11/12 19:50:49;;;;;;;6.40;3.63;;;;;;;7.65;75.50;98236.31;5110803;28;41616;-85
2023/11/12 19:53:18;;;;;;;6.73;4.57;;;;;;;7.76;75.63;98246.22;5111918;28;41351;-87
2023/11/12 19:55:49;;;;;;;5.53;4.30;;;;;;;7.68;76.34;98219.44;5112041;28;39318;-85
2023/11/12 19:58:17;;;;;;;6.50;4.83;;;;;;;7.80;76.71;98239.78;5094188;28;41870;-83
2023/11/12 20:00:44;;;;;;;6.73;3.93;;;;;;;7.48;76.38;98192.53;5095069;28;41352;-84
2023/11/12 20:03:12;;;;;;;4.57;3.87;;;;;;;7.90;76.84;98256.75;5111572;28;42090;-86
2023/11/12 20:05:45;;;;;;;6.23;3.77;;;;;;;7.92;76.69;98245.16;5112126;28;40726;-84
2023/11/12 20:08:13;;;;;;;6.97;4.00;;;;;;;7.85;77.14;98227.19;5111255;28;42473;-82
2023/11/12 20:10:43;;;;;;;6.07;4.13;;;;;;;7.98;76.95;98245.72;5093781;28;44150;-83
2023/11/12 20:13:13;;;;;;;6.80;4.00;;;;;;;7.87;76.60;98234.06;5095373;28;41066;-84
2023/11/12 20:15:41;;;;;;;5.67;3.77;;;;;;;7.76;76.61;98223.34;5112638;28;38536;-84
2023/11/12 20:18:11;;;;;;;6.37;3.63;;;;;;;7.99;76.55;98272.00;5112143;28;40282;-86
2023/11/12 20:20:41;;;;;;;5.87;3.83;;;;;;;8.00;76.09;98278.97;5113627;28;42949;-86
2023/11/12 20:23:13;;;;;;;5.50;4.63;;;;;;;8.00;75.84;98278.97;5092221;28;42314;-84
2023/11/12 20:25:40;;;;;;;5.80;4.17;;;;;;;7.81;76.11;98244.97;5129359;27;38995;-84
2023/11/12 20:28:13;;;;;;;6.03;3.97;;;;;;;7.87;76.48;98262.22;5095525;28;42110;-85
2023/11/12 20:30:44;;;;;;;5.03;3.70;;;;;;;7.85;77.05;98253.53;5095046;28;42370;-83
2023/11/12 20:33:12;;;;;;;5.40;3.33;;;;;;;7.92;78.16;98271.53;5095609;28;41277;-82
2023/11/12 20:35:46;;;;;;;5.47;3.27;;;;;;;7.92;78.03;98283.84;5095337;28;39059;-82
2023/11/12 20:38:15;;;;;;;6.07;3.40;;;;;;;7.92;77.68;98291.75;5112568;28;41901;-82
2023/11/12 20:40:43;;;;;;;3.77;2.97;;;;;;;7.93;78.26;98283.75;5111272;28;43656;-83
2023/11/12 20:43:11;;;;;;;4.77;2.97;;;;;;;7.84;78.06;98259.75;5110553;28;41512;-83
2023/11/12 20:45:42;;;;;;;5.60;2.87;;;;;;;7.85;77.87;98258.81;5093913;28;39807;-85
2023/11/12 20:48:14;;;;;;;3.30;2.23;;;;;;;7.84;77.79;98257.13;5117503;27;40780;-82
2023/11/12 20:50:42;;;;;;;2.70;2.30;;;;;;;7.87;77.86;98272.75;5131683;27;44615;-86
